Time;durP1;ratioP1;P1;durP2;ratioP2;P2;SDS_P1;SDS_P2;PMS_P1;PMS_P2;Temp;Humidity;BMP_temperature;BMP_pressure;BME280_temperature;BME280_humidity;BME280_pressure;Samples;Min_cycle;Max_cycle;Signal;HPM_P1;HPM_P2
2022/06/02 00:02:33;;;;;;;0.50;0.50;;;12.30;99.90;12.20;101821.00;;;;5036078;28;20164;-60
2022/06/02 00:05:14;;;;;;;0.50;0.50;;;12.40;99.90;12.30;101816.00;;;;5035863;28;20172;-60
2022/06/02 00:08:30;;;;;;;0.50;0.50;;;12.40;99.90;12.40;101816.00;;;;5035479;28;20175;-61
2022/06/02 00:11:41;;;;;;;0.50;0.50;;;12.50;99.90;12.00;101819.00;;;;5035155;28;20191;-61
2022/06/02 00:15:06;;;;;;;0.60;0.60;;;12.40;99.90;11.60;101825.00;;;;5035437;28;20182;-61
2022/06/02 00:17:40;;;;;;;0.50;0.50;;;11.90;99.90;11.80;101822.00;;;;5050696;28;20182;-60
2022/06/02 00:21:14;;;;;;;0.60;0.60;;;12.00;99.90;11.90;101819.00;;;;5050784;28;20181;-61
2022/06/02 00:24:06;;;;;;;0.53;0.53;;;12.10;99.90;11.60;101827.00;;;;5017359;28;20199;-60
2022/06/02 00:26:49;;;;;;;0.50;0.50;;;11.80;99.90;11.70;101832.00;;;;5029439;28;20188;-60
2022/06/02 00:29:48;;;;;;;0.50;0.50;;;11.80;99.90;11.60;101833.00;;;;5015220;28;20191;-60
2022/06/02 00:32:25;;;;;;;0.50;0.50;;;11.90;99.90;11.30;101830.00;;;;5014235;28;20217;-60
2022/06/02 00:35:26;;;;;;;0.60;0.60;;;11.60;99.90;11.70;101827.00;;;;5015220;28;20186;-60
2022/06/02 00:38:05;;;;;;;0.60;0.60;;;11.60;99.90;11.40;101828.00;;;;5046548;28;20198;-60
2022/06/02 00:40:36;;;;;;;0.60;0.60;;;11.60;99.90;11.40;101831.00;;;;5033498;28;20212;-60
2022/06/02 00:43:33;;;;;;;0.60;0.60;;;11.50;99.90;11.70;101829.00;;;;5050259;28;20609;-60
2022/06/02 00:46:22;;;;;;;0.60;0.60;;;11.60;99.90;11.60;101809.00;;;;5028706;28;20198;-61
2022/06/02 00:49:03;;;;;;;0.60;0.60;;;11.70;99.90;11.60;101788.00;;;;5030447;28;20236;-60
2022/06/02 00:51:53;;;;;;;0.77;0.77;;;11.60;99.90;11.50;101828.00;;;;5014633;28;20201;-61
2022/06/02 00:57:39;;;;;;;0.80;0.80;;;11.30;99.90;11.00;101838.00;;;;5042218;28;20682;-60
2022/06/02 01:00:36;;;;;;;0.70;0.70;;;11.20;99.90;11.00;101831.00;;;;5046402;28;20192;-60
2022/06/02 01:03:22;;;;;;;0.70;0.70;;;11.20;99.90;10.90;101809.00;;;;5046274;28;20185;-60
2022/06/02 01:06:09;;;;;;;0.70;0.70;;;11.00;99.90;10.90;101828.00;;;;5014731;28;20616;-61
2022/06/02 01:09:05;;;;;;;0.70;0.70;;;11.10;99.90;10.70;101832.00;;;;5014769;28;20181;-61
2022/06/02 01:11:58;;;;;;;0.87;0.87;;;10.90;99.90;10.50;101836.00;;;;5045610;28;20207;-60
2022/06/02 01:15:07;;;;;;;0.70;0.70;;;10.80;99.90;10.30;101811.00;;;;5014711;28;20183;-60
2022/06/02 01:18:13;;;;;;;0.70;0.70;;;10.70;99.90;10.00;101840.00;;;;5014740;28;20183;-60
2022/06/02 01:21:03;;;;;;;0.70;0.70;;;10.40;99.90;10.60;101844.00;;;;5014171;28;20662;-60
2022/06/02 01:23:50;;;;;;;0.70;0.70;;;10.50;99.90;10.30;101847.00;;;;5041924;28;20535;-61
2022/06/02 01:26:44;;;;;;;0.70;0.70;;;10.40;99.90;10.40;101848.00;;;;5030169;28;20189;-60
2022/06/02 01:29:27;;;;;;;0.80;0.80;;;10.40;99.90;10.20;101842.00;;;;5046731;28;20176;-60
2022/06/02 01:32:06;;;;;;;0.70;0.70;;;10.40;99.90;10.40;101858.00;;;;5014069;28;20758;-60
2022/06/02 01:35:10;;;;;;;0.80;0.80;;;10.40;99.90;10.40;101853.00;;;;5064364;28;20233;-61
2022/06/02 01:38:43;;;;;;;0.90;0.90;;;10.50;99.90;10.70;101849.00;;;;5011826;28;20658;-60
2022/06/02 01:41:40;;;;;;;0.80;0.80;;;10.50;99.90;10.10;101841.00;;;;4915322;29;20186;-61
2022/06/02 01:44:22;;;;;;;0.70;0.70;;;10.60;99.90;10.50;101851.00;;;;5049381;28;20175;-61
2022/06/02 01:47:21;;;;;;;0.80;0.80;;;10.60;99.90;10.10;101864.00;;;;5049173;28;20272;-60
2022/06/02 01:50:18;;;;;;;0.80;0.80;;;10.40;99.90;10.10;101855.00;;;;5033505;28;20231;-60
2022/06/02 01:53:12;;;;;;;0.90;0.90;;;10.20;99.90;10.40;101860.00;;;;5033430;28;20233;-60
2022/06/02 01:56:16;;;;;;;1.00;1.00;;;10.30;99.90;10.40;101852.00;;;;5032367;28;20226;-60
2022/06/02 01:59:29;;;;;;;0.90;0.90;;;10.40;99.90;10.40;101843.00;;;;5032423;28;20574;-60
2022/06/02 02:02:25;;;;;;;0.90;0.90;;;10.40;99.90;10.30;101850.00;;;;5033759;28;20191;-60
2022/06/02 02:05:35;;;;;;;0.80;0.80;;;10.40;99.90;10.30;101851.00;;;;5033309;28;20182;-60
2022/06/02 02:08:35;;;;;;;0.80;0.80;;;10.40;99.90;10.40;101857.00;;;;5033287;28;20654;-60
2022/06/02 02:11:35;;;;;;;0.90;0.90;;;10.40;99.90;10.30;101852.00;;;;5031177;28;20692;-61
2022/06/02 02:14:34;;;;;;;0.80;0.80;;;10.50;99.90;10.30;101861.00;;;;5033491;28;20178;-60
2022/06/02 02:17:58;;;;;;;0.80;0.80;;;10.40;99.90;10.00;101853.00;;;;5033245;28;20179;-60
2022/06/02 02:20:57;;;;;;;0.83;0.83;;;10.20;99.90;9.90;101849.00;;;;5033351;28;20187;-60
2022/06/02 02:24:21;;;;;;;0.80;0.80;;;10.10;99.90;10.00;101857.00;;;;5028850;28;20198;-60
2022/06/02 02:27:00;;;;;;;0.90;0.90;;;10.10;99.90;9.90;101860.00;;;;4996368;28;20235;-60
2022/06/02 02:30:00;;;;;;;0.83;0.83;;;10.10;99.90;9.70;101855.00;;;;5031990;28;20171;-60
2022/06/02 02:33:16;;;;;;;0.77;0.77;;;9.90;99.90;9.70;101852.00;;;;5031736;28;20684;-61
2022/06/02 02:35:51;;;;;;;0.90;0.90;;;9.80;99.90;9.70;101852.00;;;;5033271;28;20530;-60
2022/06/02 02:38:43;;;;;;;0.90;0.90;;;9.80;99.90;9.70;101856.00;;;;5032918;28;20233;-60
2022/06/02 02:41:19;;;;;;;0.80;0.80;;;9.70;99.90;9.90;101854.00;;;;5031993;28;20171;-60
2022/06/02 02:44:15;;;;;;;0.90;0.90;;;9.80;99.90;9.90;101855.00;;;;5031871;28;20179;-60
2022/06/02 02:47:08;;;;;;;0.90;0.90;;;9.90;99.90;10.20;101849.00;;;;5032550;28;20205;-60
2022/06/02 02:49:54;;;;;;;0.80;0.80;;;10.20;99.90;9.80;101859.00;;;;5033124;28;20182;-60
2022/06/02 02:52:26;;;;;;;0.80;0.80;;;10.00;99.90;9.90;101849.00;;;;5031644;28;20591;-60
2022/06/02 02:55:17;;;;;;;0.90;0.90;;;10.00;99.90;9.70;101855.00;;;;5032938;28;20195;-60
2022/06/02 02:58:02;;;;;;;0.90;0.90;;;9.90;99.90;9.90;101858.00;;;;5031785;28;20180;-60
2022/06/02 03:00:52;;;;;;;0.80;0.80;;;9.90;99.90;9.80;101849.00;;;;5032075;28;20230;-60
2022/06/02 03:03:40;;;;;;;0.80;0.80;;;9.90;99.90;9.80;101850.00;;;;5051344;28;20178;-60
2022/06/02 03:06:31;;;;;;;1.30;1.30;;;9.90;99.90;9.80;101859.00;;;;5051934;28;20179;-60
2022/06/02 03:09:10;;;;;;;1.00;1.00;;;9.80;99.90;9.70;101852.00;;;;5051198;28;20190;-60
2022/06/02 03:11:54;;;;;;;0.80;0.80;;;9.90;99.90;9.30;101847.00;;;;5051633;28;20195;-61
2022/06/02 03:14:29;;;;;;;0.80;0.80;;;9.70;99.90;9.70;101854.00;;;;5052393;28;20633;-60
2022/06/02 03:17:11;;;;;;;0.97;0.97;;;9.70;99.90;9.10;101856.00;;;;5052707;28;20550;-60
2022/06/02 03:20:02;;;;;;;0.87;0.87;;;9.60;99.90;9.00;101811.00;;;;5056013;28;20186;-60
2022/06/02 03:23:04;;;;;;;0.80;0.80;;;9.30;99.90;9.20;101822.00;;;;5055243;28;20248;-60
2022/06/02 03:26:05;;;;;;;0.90;0.90;;;9.30;99.90;9.10;101865.00;;;;5056467;28;20182;-60
2022/06/02 03:29:02;;;;;;;0.90;0.90;;;9.30;99.90;9.60;101862.00;;;;5056013;28;20182;-61
2022/06/02 03:31:56;;;;;;;0.90;0.90;;;9.40;99.90;9.50;101876.00;;;;5055845;28;20215;-60
2022/06/02 03:35:06;;;;;;;0.80;0.80;;;9.70;99.90;9.10;101883.00;;;;5053094;28;20341;-60
2022/06/02 03:38:05;;;;;;;1.37;1.37;;;9.40;99.90;8.90;101888.00;;;;5002537;28;20195;-60
2022/06/02 03:40:59;;;;;;;0.90;0.90;;;9.20;99.90;9.20;101892.00;;;;5036380;28;20159;-59
2022/06/02 03:43:53;;;;;;;0.70;0.70;;;9.30;99.90;9.10;101889.00;;;;5036328;28;20179;-60
2022/06/02 03:46:52;;;;;;;0.90;0.90;;;9.30;99.90;9.60;101887.00;;;;5034858;28;20656;-60
2022/06/02 03:50:05;;;;;;;1.00;1.00;;;9.40;99.90;9.30;101893.00;;;;5035745;28;20186;-60
2022/06/02 03:53:12;;;;;;;0.90;0.90;;;9.40;99.90;9.60;101889.00;;;;5002736;28;20221;-60
2022/06/02 03:55:52;;;;;;;0.80;0.80;;;9.70;99.90;8.70;101895.00;;;;5035663;28;20190;-60
2022/06/02 03:58:51;;;;;;;0.93;0.93;;;9.40;99.90;9.20;101892.00;;;;5051642;28;20182;-60
2022/06/02 04:01:41;;;;;;;1.63;1.63;;;9.40;99.90;8.70;101894.00;;;;5035999;28;20195;-60
2022/06/02 04:04:51;;;;;;;1.80;1.80;;;9.20;99.90;8.70;101901.00;;;;5034835;28;20213;-60
2022/06/02 04:07:48;;;;;;;1.33;1.33;;;9.10;99.90;9.30;101910.00;;;;5035620;28;20185;-60
2022/06/02 04:10:52;;;;;;;0.80;0.80;;;9.20;99.90;9.30;101900.00;;;;5034235;28;20232;-60
2022/06/02 04:13:54;;;;;;;0.80;0.80;;;9.40;99.90;9.80;101895.00;;;;5035761;28;20182;-60
2022/06/02 04:17:02;;;;;;;0.90;0.90;;;9.70;99.90;9.30;101891.00;;;;5035207;28;20210;-60
2022/06/02 04:23:22;;;;;;;0.90;0.90;;;9.50;99.90;9.60;101881.00;;;;5034255;28;20349;-60
2022/06/02 04:26:30;;;;;;;0.87;0.87;;;9.70;99.90;9.40;101901.00;;;;5035130;28;20182;-60
2022/06/02 04:29:36;;;;;;;0.90;0.90;;;9.60;99.90;10.60;101889.00;;;;5034938;28;20237;-60
2022/06/02 04:32:42;;;;;;;0.80;0.80;;;10.30;99.90;11.30;101894.00;;;;5033857;28;20211;-60
2022/06/02 04:35:29;;;;;;;1.07;1.07;;;10.90;99.90;12.10;101873.00;;;;5035061;28;20706;-60
2022/06/02 04:38:31;;;;;;;1.03;1.03;;;11.70;99.90;12.80;101888.00;;;;5035289;28;20178;-60
2022/06/02 04:41:20;;;;;;;1.10;1.10;;;12.40;99.90;13.60;101879.00;;;;5033830;28;20654;-61
2022/06/02 04:44:30;;;;;;;0.60;0.60;;;13.30;99.90;13.50;101863.00;;;;5033741;28;20225;-61
2022/06/02 04:47:22;;;;;;;0.50;0.50;;;13.70;99.90;14.10;101862.00;;;;5034939;28;20180;-60
2022/06/02 04:50:05;;;;;;;0.40;0.40;;;14.10;99.90;14.40;101820.00;;;;5034516;28;20193;-60
2022/06/02 04:52:52;;;;;;;0.33;0.33;;;14.50;99.90;15.70;101857.00;;;;5033696;28;20204;-61
2022/06/02 04:55:58;;;;;;;0.23;0.23;;;15.30;99.90;17.00;101861.00;;;;5033628;28;20199;-61
2022/06/02 04:58:50;;;;;;;0.40;0.40;;;16.20;99.90;18.40;101889.00;;;;5034347;28;20713;-61
2022/06/02 05:01:53;;;;;;;0.40;0.40;;;17.50;99.90;19.70;101939.00;;;;5033551;28;20663;-61
2022/06/02 05:04:50;;;;;;;0.20;0.20;;;18.70;99.90;19.80;101974.00;;;;5035135;28;20642;-60
2022/06/02 05:07:58;;;;;;;0.43;0.43;;;19.30;99.90;20.80;101984.00;;;;5034635;28;20235;-60
2022/06/02 05:10:59;;;;;;;0.10;0.10;;;19.90;99.90;22.00;102008.00;;;;5034570;28;20175;-59
2022/06/02 05:14:16;;;;;;;0.45;0.45;;;20.80;99.90;22.60;102037.00;;;;5019438;28;20202;-59
2022/06/02 05:17:36;;;;;;;0.25;0.25;;;21.70;99.90;22.90;102035.00;;;;5012146;28;20194;-59
2022/06/02 05:21:07;;;;;;;0.10;0.10;;;22.20;99.90;23.50;102045.00;;;;5003616;28;20198;-59
2022/06/02 05:24:06;;;;;;;0.77;0.77;;;22.60;99.90;24.10;102025.00;;;;5034375;28;20178;-59
2022/06/02 05:27:08;;;;;;;0.25;0.25;;;23.10;99.90;24.50;102061.00;;;;5032760;28;20634;-61
2022/06/02 05:30:07;;;;;;;0.32;0.32;;;23.50;99.90;25.20;102056.00;;;;5033277;28;20178;-61
2022/06/02 05:33:21;;;;;;;0.10;0.10;;;23.90;99.90;25.90;102057.00;;;;5034081;28;20202;-61
2022/06/02 05:36:15;;;;;;;0.65;0.65;;;24.60;99.90;26.40;102061.00;;;;5016376;28;20205;-61
2022/06/02 05:39:15;;;;;;;0.93;0.90;;;25.20;99.90;26.70;102057.00;;;;5033890;28;20529;-61
2022/06/02 05:42:14;;;;;;;0.10;0.10;;;25.50;99.90;27.60;102067.00;;;;5032795;28;20642;-60
2022/06/02 05:45:21;;;;;;;0.10;0.10;;;26.00;99.90;28.10;102057.00;;;;5033751;28;20638;-59
2022/06/02 05:48:18;;;;;;;0.10;0.10;;;26.80;99.90;28.40;102058.00;;;;5034347;28;20216;-60
2022/06/02 05:51:17;;;;;;;0.10;0.10;;;27.00;99.90;27.60;102066.00;;;;5068515;28;20641;-59
2022/06/02 05:53:53;;;;;;;0.10;0.10;;;26.90;99.90;28.20;102070.00;;;;5068989;28;20529;-60
2022/06/02 05:57:20;;;;;;;3.28;3.10;;;27.00;99.80;28.90;102079.00;;;;5053350;28;20248;-59
2022/06/02 06:00:20;;;;;;;0.10;0.10;;;27.40;99.40;28.00;102085.00;;;;4963706;28;20655;-59
2022/06/02 06:03:17;;;;;;;0.10;0.10;;;27.50;98.30;26.50;102093.00;;;;5068606;28;20198;-59
2022/06/02 06:06:26;;;;;;;0.10;0.10;;;26.60;98.10;24.60;102107.00;;;;5053269;28;20582;-59
2022/06/02 06:09:14;;;;;;;0.10;0.10;;;26.10;98.60;26.90;102112.00;;;;5044408;28;20186;-60
2022/06/02 06:12:14;;;;;;;0.10;0.10;;;25.80;99.50;27.80;102110.00;;;;5046905;28;20198;-60
2022/06/02 06:15:13;;;;;;;0.10;0.10;;;26.20;99.20;28.10;102114.00;;;;5048617;28;20182;-60
2022/06/02 06:18:25;;;;;;;0.10;0.10;;;26.60;99.20;26.90;102106.00;;;;5068845;28;20174;-60
2022/06/02 06:21:35;;;;;;;0.45;0.45;;;27.10;97.40;18.10;102080.00;;;;5053067;28;20189;-59
2022/06/02 06:24:28;;;;;;;1.65;0.85;;;22.10;99.90;19.30;102096.00;;;;5053372;28;20272;-59
2022/06/02 06:27:00;;;;;;;0.10;0.10;;;20.00;99.90;23.90;102145.00;;;;5049140;28;20190;-60
2022/06/02 06:29:35;;;;;;;0.20;0.20;;;21.90;99.90;22.90;102103.00;;;;5045810;28;20181;-60
2022/06/02 06:32:21;;;;;;;3.17;1.80;;;23.10;99.90;18.90;102113.00;;;;5052929;28;20603;-60
2022/06/02 06:35:16;;;;;;;0.10;0.10;;;21.40;99.90;23.80;102149.00;;;;5067642;28;20190;-60
2022/06/02 06:38:16;;;;;;;1.33;1.30;;;22.10;99.90;24.10;102159.00;;;;5044504;28;20275;-64
2022/06/02 06:41:08;;;;;;;0.30;0.30;;;23.70;99.90;25.00;102149.00;;;;5029715;28;20209;-65
2022/06/02 06:44:03;;;;;;;0.10;0.10;;;24.60;99.90;26.00;102152.00;;;;5051620;28;20640;-65
2022/06/02 06:47:01;;;;;;;0.20;0.20;;;24.90;99.90;26.00;102153.00;;;;5050930;28;20185;-65
2022/06/02 06:49:53;;;;;;;0.50;0.50;;;25.30;99.90;22.70;102167.00;;;;5052792;28;20178;-61
2022/06/02 06:52:43;;;;;;;0.80;0.80;;;23.90;99.90;23.00;102128.00;;;;5052258;28;20181;-63
2022/06/02 06:55:28;;;;;;;0.30;0.30;;;22.90;99.90;23.70;102126.00;;;;5071994;28;20175;-63
2022/06/02 06:58:16;;;;;;;1.25;1.15;;;23.30;99.90;23.60;102165.00;;;;5056410;28;20175;-63
2022/06/02 07:01:07;;;;;;;0.10;0.10;;;23.60;99.90;24.00;102170.00;;;;5055513;28;20182;-64
2022/06/02 07:04:04;;;;;;;0.30;0.30;;;23.20;99.90;21.80;102162.00;;;;5056084;28;20188;-64
2022/06/02 07:07:16;;;;;;;1.17;0.57;;;22.70;99.90;22.20;102162.00;;;;5056904;28;20171;-63
2022/06/02 07:10:35;;;;;;;0.20;0.20;;;21.80;99.90;24.50;102155.00;;;;5055238;28;20261;-64
2022/06/02 07:13:06;;;;;;;0.30;0.30;;;22.90;99.90;25.00;102135.00;;;;5056938;28;20193;-64
2022/06/02 07:16:15;;;;;;;0.30;0.30;;;24.40;99.90;24.40;102151.00;;;;5072083;28;20179;-64
2022/06/02 07:19:18;;;;;;;0.10;0.10;;;24.60;99.90;23.10;102135.00;;;;5056472;28;20182;-63
2022/06/02 07:22:20;;;;;;;0.13;0.13;;;24.20;99.90;22.90;102133.00;;;;5071840;28;20204;-64
2022/06/02 07:24:57;;;;;;;0.80;0.80;;;23.10;99.90;18.70;102122.00;;;;5042928;28;20661;-64
2022/06/02 07:27:45;;;;;;;0.30;0.30;;;21.00;99.90;22.00;102151.00;;;;5035672;28;20266;-64
2022/06/02 07:30:30;;;;;;;1.27;1.27;;;21.20;99.90;25.20;102151.00;;;;5036288;28;20178;-64
2022/06/02 07:33:26;;;;;;;1.75;1.15;;;23.60;99.90;21.90;102151.00;;;;5036608;28;20646;-64
2022/06/02 07:36:13;;;;;;;3.70;3.40;;;23.70;99.90;16.20;102077.00;;;;5036917;28;20187;-63
2022/06/02 07:38:45;;;;;;;0.25;0.25;;;19.10;99.90;18.10;102092.00;;;;5056053;28;20176;-63
2022/06/02 07:41:28;;;;;;;0.50;0.50;;;18.20;99.90;20.40;102135.00;;;;5056300;28;20185;-63
2022/06/02 07:43:57;;;;;;;3.83;1.73;;;19.40;99.90;19.50;102137.00;;;;5055843;28;20595;-63
2022/06/02 07:46:56;;;;;;;0.43;0.43;;;19.80;99.90;21.60;102160.00;;;;5056022;28;20182;-63
2022/06/02 07:49:39;;;;;;;0.50;0.50;;;20.80;99.90;22.50;102165.00;;;;5071559;28;20520;-63
2022/06/02 07:52:29;;;;;;;0.80;0.68;;;21.80;99.90;21.80;102155.00;;;;5055728;28;20642;-64
2022/06/02 07:55:19;;;;;;;0.43;0.43;;;21.70;99.90;19.20;102129.00;;;;5071206;28;20178;-64
2022/06/02 07:57:56;;;;;;;0.57;0.57;;;20.10;99.90;20.40;102129.00;;;;5071528;28;20178;-64
2022/06/02 08:00:31;;;;;;;0.10;0.10;;;20.30;99.90;22.90;102155.00;;;;5055917;28;20288;-65
2022/06/02 08:03:45;;;;;;;0.50;0.50;;;21.60;99.90;22.20;102138.00;;;;5071281;28;20280;-65
2022/06/02 08:06:44;;;;;;;1.15;1.15;;;21.90;99.90;20.00;102136.00;;;;5044797;28;20393;-65
2022/06/02 08:09:54;;;;;;;0.10;0.10;;;21.30;99.90;23.20;102153.00;;;;5034430;28;20297;-65
2022/06/02 08:12:43;;;;;;;0.22;0.22;;;22.20;99.90;21.00;102137.00;;;;5034530;28;20191;-65
2022/06/02 08:15:37;;;;;;;0.45;0.45;;;22.20;99.90;20.60;102131.00;;;;5035580;28;20258;-65
2022/06/02 08:18:30;;;;;;;0.40;0.40;;;20.60;99.90;20.40;102136.00;;;;5034510;28;20171;-65
2022/06/02 08:21:15;;;;;;;1.35;1.30;;;21.00;99.90;20.10;102144.00;;;;5035507;28;20179;-64
2022/06/02 08:24:20;;;;;;;0.10;0.10;;;20.90;99.90;23.10;102119.00;;;;5035796;28;20172;-64
2022/06/02 08:27:22;;;;;;;0.15;0.15;;;22.10;99.90;23.30;102161.00;;;;5035669;28;20174;-64
2022/06/02 08:30:15;;;;;;;1.77;1.15;;;23.40;99.90;21.80;102160.00;;;;5017780;28;20182;-64
2022/06/02 08:33:08;;;;;;;0.25;0.25;;;21.70;99.90;20.60;102155.00;;;;5035674;28;20190;-64
2022/06/02 08:35:59;;;;;;;0.20;0.20;;;20.90;99.90;20.10;102152.00;;;;5034755;28;20189;-64
2022/06/02 08:38:55;;;;;;;0.30;0.30;;;20.50;99.90;21.30;102155.00;;;;5034086;28;20709;-64
2022/06/02 08:42:17;;;;;;;1.05;0.88;;;20.70;99.90;21.50;102160.00;;;;5035299;28;20171;-65
2022/06/02 08:45:19;;;;;;;1.10;1.08;;;21.00;99.90;17.70;102130.00;;;;5035303;28;20237;-64
2022/06/02 08:48:28;;;;;;;0.40;0.40;;;19.40;99.90;19.30;102151.00;;;;5034127;28;20187;-65
2022/06/02 08:51:15;;;;;;;0.30;0.30;;;19.20;99.90;19.50;102162.00;;;;5029753;28;20194;-65
2022/06/02 08:54:05;;;;;;;0.20;0.20;;;19.70;99.90;22.00;102130.00;;;;5034915;28;20203;-65
2022/06/02 08:57:11;;;;;;;0.50;0.50;;;21.10;99.90;21.40;102174.00;;;;5034765;28;20221;-65
2022/06/02 09:00:18;;;;;;;0.10;0.10;;;21.50;99.90;24.30;102148.00;;;;5034680;28;20159;-65
2022/06/02 09:03:21;;;;;;;1.90;0.85;;;22.90;99.90;23.40;102171.00;;;;5033457;28;20195;-65
2022/06/02 09:06:17;;;;;;;0.25;0.25;;;23.90;99.90;23.30;102170.00;;;;5032522;28;20553;-65
2022/06/02 09:09:12;;;;;;;2.60;1.42;;;22.90;99.90;19.30;102168.00;;;;5082482;28;20251;-65
2022/06/02 09:11:59;;;;;;;0.10;0.10;;;21.90;99.90;20.80;102171.00;;;;5069849;28;20528;-64
2022/06/02 09:14:50;;;;;;;0.57;0.57;;;20.80;99.90;20.40;102172.00;;;;5054291;28;20174;-65
2022/06/02 09:18:27;;;;;;;0.30;0.30;;;20.60;99.90;21.30;102179.00;;;;5052013;28;20178;-64
2022/06/02 09:21:14;;;;;;;0.38;0.38;;;20.70;99.90;20.60;102174.00;;;;4996154;28;20323;-65
2022/06/02 09:24:23;;;;;;;0.10;0.10;;;20.30;99.90;20.30;102171.00;;;;5053116;28;20178;-64
2022/06/02 09:27:39;;;;;;;0.10;0.10;;;20.00;99.90;18.50;102148.00;;;;5054118;28;20227;-64
2022/06/02 09:30:16;;;;;;;1.20;0.98;;;19.80;99.90;18.60;102139.00;;;;5052905;28;20182;-64
2022/06/02 09:32:47;;;;;;;0.50;0.50;;;18.80;99.90;19.40;102125.00;;;;5030310;28;20677;-64
2022/06/02 09:35:23;;;;;;;0.20;0.20;;;19.10;99.90;18.70;102103.00;;;;5050537;28;20228;-64
2022/06/02 09:38:27;;;;;;;0.10;0.10;;;19.00;99.90;21.20;102167.00;;;;5053034;28;20182;-65
2022/06/02 09:41:34;;;;;;;0.52;0.35;;;19.90;99.90;23.90;102167.00;;;;5052751;28;20524;-65
2022/06/02 09:44:37;;;;;;;0.17;0.17;;;22.70;99.90;25.50;102152.00;;;;5051957;28;20169;-65
2022/06/02 09:47:40;;;;;;;0.20;0.20;;;24.60;99.90;22.80;102162.00;;;;5035395;28;20173;-64
2022/06/02 09:50:36;;;;;;;0.20;0.20;;;23.70;99.90;24.10;102138.00;;;;5069094;28;20195;-65
2022/06/02 09:53:34;;;;;;;0.10;0.10;;;23.50;99.30;25.20;102145.00;;;;5052706;28;20178;-65
2022/06/02 09:56:34;;;;;;;0.30;0.30;;;24.40;98.60;24.80;102135.00;;;;5052686;28;20535;-65
2022/06/02 09:59:36;;;;;;;0.32;0.32;;;24.70;98.50;24.10;102150.00;;;;5053415;28;20500;-65
2022/06/02 10:02:30;;;;;;;0.35;0.20;;;24.50;97.70;22.50;102136.00;;;;5051781;28;20205;-65
2022/06/02 10:05:27;;;;;;;0.17;0.17;;;23.50;98.20;23.40;102168.00;;;;5017696;28;20235;-65
2022/06/02 10:08:17;;;;;;;0.38;0.32;;;23.60;98.50;21.40;102173.00;;;;5052617;28;20209;-69
2022/06/02 10:11:47;;;;;;;0.10;0.10;;;22.40;99.50;24.00;102182.00;;;;5051988;28;20182;-68
2022/06/02 10:14:57;;;;;;;0.20;0.20;;;22.70;99.90;23.00;102170.00;;;;5042653;28;20241;-68
2022/06/02 10:17:56;;;;;;;0.17;0.17;;;23.00;99.90;22.40;102175.00;;;;5051852;28;20183;-66
2022/06/02 10:33:28;;;;;;;2.60;0.98;;;23.00;99.40;21.50;102165.00;;;;5114596;27;1279407;-66
2022/06/02 10:36:35;;;;;;;0.10;0.10;;;22.00;99.90;22.00;102126.00;;;;5132041;27;20175;-67
2022/06/02 10:39:52;;;;;;;0.17;0.17;;;22.90;99.90;21.40;102159.00;;;;5109719;28;20635;-67
2022/06/02 10:42:51;;;;;;;0.30;0.30;;;21.80;99.90;21.50;102157.00;;;;5109400;28;20184;-67
2022/06/02 10:45:59;;;;;;;0.20;0.20;;;21.50;99.90;21.00;102161.00;;;;5110415;28;20631;-67
2022/06/02 10:49:07;;;;;;;0.57;0.40;;;21.40;99.90;22.60;102159.00;;;;5111236;28;20542;-67
2022/06/02 10:52:14;;;;;;;0.20;0.20;;;21.70;99.90;23.50;102143.00;;;;5109766;28;20202;-67
2022/06/02 10:55:02;;;;;;;0.20;0.20;;;22.80;99.90;23.70;102136.00;;;;5055675;28;20589;-67
2022/06/02 10:57:44;;;;;;;0.35;0.35;;;23.50;98.80;21.90;102137.00;;;;5110179;28;20701;-67
2022/06/02 11:00:40;;;;;;;0.10;0.10;;;22.50;99.40;24.30;102141.00;;;;5110610;28;20578;-67
2022/06/02 11:03:20;;;;;;;1.13;0.95;;;23.80;99.80;23.20;102140.00;;;;5110489;28;20674;-67
2022/06/02 11:06:17;;;;;;;2.05;1.95;;;23.10;99.30;22.60;102106.00;;;;5110837;28;20181;-67
2022/06/02 11:09:23;;;;;;;1.35;0.75;;;23.10;99.10;23.10;102129.00;;;;5109519;28;20247;-67
2022/06/02 11:12:44;;;;;;;1.63;1.52;;;23.40;98.00;20.90;102133.00;;;;5080384;28;20242;-67
2022/06/02 11:16:11;;;;;;;0.10;0.10;;;22.20;98.90;23.70;102126.00;;;;5108415;28;20176;-67
2022/06/02 11:18:54;;;;;;;1.50;1.33;;;23.20;98.70;22.40;102104.00;;;;5108136;28;20180;-67
2022/06/02 11:22:01;;;;;;;1.88;1.05;;;23.40;97.70;21.00;102081.00;;;;5110185;28;20180;-68
2022/06/02 11:25:10;;;;;;;0.20;0.20;;;22.30;98.10;22.90;102116.00;;;;5067724;28;20753;-67
2022/06/02 11:28:15;;;;;;;0.50;0.50;;;22.40;99.20;23.00;102101.00;;;;5108805;28;20319;-67
2022/06/02 11:31:02;;;;;;;0.63;0.63;;;23.50;97.50;23.00;102100.00;;;;5107961;28;20229;-67
2022/06/02 11:33:58;;;;;;;1.48;1.20;;;23.50;98.30;22.00;102092.00;;;;5109580;28;20192;-67
2022/06/02 11:37:02;;;;;;;1.23;1.13;;;23.20;98.10;22.50;102105.00;;;;5109022;28;20180;-67
2022/06/02 11:40:06;;;;;;;1.20;1.08;;;23.10;98.50;22.60;102094.00;;;;5109966;28;20188;-67
2022/06/02 11:43:17;;;;;;;0.43;0.43;;;23.20;97.90;23.80;102089.00;;;;5108071;28;20185;-67
2022/06/02 11:46:33;;;;;;;0.77;0.77;;;23.30;98.80;20.50;102081.00;;;;5103753;28;20237;-67
2022/06/02 11:49:48;;;;;;;0.25;0.25;;;21.70;97.00;21.30;102095.00;;;;5096019;28;20200;-66
2022/06/02 11:52:38;;;;;;;0.22;0.22;;;21.40;98.70;22.40;102112.00;;;;5094757;28;20204;-69
2022/06/02 11:55:39;;;;;;;2.47;1.33;;;21.60;99.90;21.40;102089.00;;;;5096194;28;20169;-65
2022/06/02 11:58:45;;;;;;;3.72;1.58;;;21.30;99.90;21.40;102086.00;;;;5094507;28;20181;-64
2022/06/02 12:01:32;;;;;;;0.65;0.65;;;21.30;99.70;21.40;102081.00;;;;5095009;28;20180;-74
2022/06/02 12:04:41;;;;;;;0.52;0.52;;;21.10;99.90;21.20;102076.00;;;;5094626;28;20242;-67
2022/06/02 12:07:40;;;;;;;3.78;1.15;;;21.20;99.90;20.90;102072.00;;;;5095678;28;20273;-68
2022/06/02 12:10:43;;;;;;;0.80;0.80;;;21.00;99.90;21.50;102058.00;;;;5095678;28;20185;-67
2022/06/02 12:13:15;;;;;;;1.02;1.02;;;21.50;99.90;21.00;102027.00;;;;5095562;28;20184;-68
2022/06/02 12:16:28;;;;;;;0.50;0.50;;;21.30;99.90;21.60;102061.00;;;;5095899;28;20165;-67
2022/06/02 12:19:35;;;;;;;6.18;1.67;;;21.60;99.90;21.30;102055.00;;;;5095581;28;20280;-67
2022/06/02 12:22:38;;;;;;;1.35;1.25;;;21.40;99.90;21.30;102052.00;;;;5094483;28;20173;-67
2022/06/02 12:25:35;;;;;;;0.10;0.10;;;21.10;99.90;21.60;102046.00;;;;5095548;28;20173;-67
2022/06/02 12:28:26;;;;;;;0.20;0.20;;;21.20;99.90;21.70;102041.00;;;;5093852;28;20675;-67
2022/06/02 12:31:22;;;;;;;0.60;0.60;;;21.30;99.90;21.10;102046.00;;;;5094276;28;20580;-67
2022/06/02 12:34:23;;;;;;;0.35;0.35;;;21.10;99.90;21.40;102011.00;;;;5094654;28;20185;-68
2022/06/02 12:37:28;;;;;;;0.73;0.73;;;21.10;99.90;20.90;102030.00;;;;5094766;28;20204;-67
2022/06/02 12:40:17;;;;;;;0.77;0.77;;;20.90;99.90;20.10;102034.00;;;;5092356;28;20658;-67
2022/06/02 12:43:07;;;;;;;0.60;0.60;;;20.50;99.70;20.40;102046.00;;;;5093275;28;20162;-67
2022/06/02 12:45:53;;;;;;;0.77;0.77;;;20.10;99.90;19.60;102038.00;;;;5094188;28;20219;-67
2022/06/02 12:49:03;;;;;;;0.10;0.10;;;20.10;99.90;19.90;101996.00;;;;5093918;28;20173;-67
2022/06/02 12:51:44;;;;;;;0.43;0.43;;;20.10;99.90;20.50;102029.00;;;;5094439;28;20211;-67
2022/06/02 12:55:06;;;;;;;0.68;0.55;;;20.20;99.90;21.80;102034.00;;;;5093880;28;20177;-67
2022/06/02 12:58:25;;;;;;;0.70;0.50;;;20.90;99.90;21.10;102033.00;;;;5093671;28;20181;-67
2022/06/02 13:01:02;;;;;;;0.77;0.50;;;21.00;99.90;21.80;102031.00;;;;5094070;28;20176;-67
2022/06/02 13:04:28;;;;;;;0.10;0.10;;;21.20;99.90;22.00;102036.00;;;;5094235;28;20670;-67
2022/06/02 13:07:31;;;;;;;1.52;1.42;;;21.40;99.90;20.40;102001.00;;;;5093499;28;20173;-67
2022/06/02 13:10:18;;;;;;;0.50;0.50;;;20.80;99.90;20.30;102031.00;;;;5063398;28;20670;-67
2022/06/02 13:13:39;;;;;;;1.58;1.15;;;20.40;99.90;20.30;102037.00;;;;5093674;28;20236;-67
2022/06/02 13:16:26;;;;;;;0.10;0.10;;;20.30;99.90;21.30;102041.00;;;;5093351;28;20181;-67
2022/06/02 13:19:01;;;;;;;0.17;0.17;;;20.50;99.90;21.80;102039.00;;;;5092015;28;20165;-67
2022/06/02 13:22:06;;;;;;;0.25;0.25;;;20.90;99.90;21.50;102034.00;;;;5094532;28;20267;-67